createdAt,value
2023-02-04T00:00:03.700Z,26.53
2023-02-04T00:01:03.703Z,26.52
2023-02-04T00:02:03.741Z,26.50
2023-02-04T00:03:03.895Z,26.53
2023-02-04T00:04:03.786Z,26.53
2023-02-04T00:05:03.792Z,26.52
2023-02-04T00:06:03.841Z,26.52
2023-02-04T00:07:03.809Z,26.50
2023-02-04T00:08:03.892Z,26.55
2023-02-04T00:09:03.861Z,26.56
2023-02-04T00:10:03.867Z,26.52
2023-02-04T00:11:04.531Z,26.52
2023-02-04T00:12:03.949Z,26.53
2023-02-04T00:13:04.004Z,26.50
2023-02-04T00:14:04.009Z,26.53
2023-02-04T00:15:04.002Z,26.52
2023-02-04T00:16:04.090Z,26.50
2023-02-04T00:17:04.058Z,26.53
2023-02-04T00:18:04.060Z,26.50
2023-02-04T00:19:04.103Z,26.49
2023-02-04T00:20:04.110Z,26.49
2023-02-04T00:21:04.156Z,26.50
2023-02-04T00:22:04.155Z,26.52
2023-02-04T00:23:04.208Z,26.53
2023-02-04T00:24:04.220Z,26.52
2023-02-04T00:25:04.232Z,26.50
2023-02-04T00:26:04.250Z,26.48
2023-02-04T00:27:04.299Z,26.49
2023-02-04T00:28:04.514Z,26.52
2023-02-04T00:29:04.333Z,26.50
2023-02-04T00:30:04.353Z,26.49
2023-02-04T00:31:04.394Z,26.50
2023-02-04T00:32:04.476Z,26.49
2023-02-04T00:33:04.417Z,26.49
2023-02-04T00:34:04.450Z,26.48
2023-02-04T00:35:04.470Z,26.50
2023-02-04T00:36:04.477Z,26.52
2023-02-04T00:37:04.552Z,26.49
2023-02-04T00:38:04.529Z,26.49
2023-02-04T00:39:04.569Z,26.48
2023-02-04T00:40:04.597Z,26.52
2023-02-04T00:41:04.618Z,26.50
2023-02-04T00:42:04.629Z,26.49
2023-02-04T00:43:04.681Z,26.50
2023-02-04T00:44:04.695Z,26.50
2023-02-04T00:45:04.728Z,26.50
2023-02-04T00:46:04.792Z,26.52
2023-02-04T00:47:04.753Z,26.50
2023-02-04T00:48:04.780Z,26.52
2023-02-04T00:49:04.818Z,26.52
2023-02-04T00:50:04.834Z,26.49
2023-02-04T00:51:04.869Z,26.52
2023-02-04T00:52:04.877Z,26.49
2023-02-04T00:53:04.924Z,26.49
2023-02-04T00:54:04.964Z,26.50
2023-02-04T00:55:05.018Z,26.48
2023-02-04T00:56:05.002Z,26.49
2023-02-04T00:57:05.028Z,26.50
2023-02-04T00:58:05.054Z,26.50
2023-02-04T00:59:05.055Z,26.50
2023-02-04T01:00:05.107Z,26.50
2023-02-04T01:01:05.218Z,26.49
2023-02-04T01:02:05.149Z,26.49
2023-02-04T01:03:05.214Z,26.49
2023-02-04T01:04:05.200Z,26.49
2023-02-04T01:05:05.221Z,26.49
2023-02-04T01:06:05.241Z,26.49
2023-02-04T01:07:05.297Z,26.46
2023-02-04T01:08:05.304Z,26.46
2023-02-04T01:09:05.366Z,26.48
2023-02-04T01:10:05.368Z,26.48
2023-02-04T01:11:05.377Z,26.49
2023-02-04T01:12:05.421Z,26.46
2023-02-04T01:13:05.486Z,26.48
2023-02-04T01:14:05.495Z,26.48
2023-02-04T01:15:05.513Z,26.48
2023-02-04T01:16:05.576Z,26.45
2023-02-04T01:17:05.562Z,26.48
2023-02-04T01:18:05.610Z,26.46
2023-02-04T01:19:05.607Z,26.46
2023-02-04T01:20:05.642Z,26.48
2023-02-04T01:21:05.689Z,26.46
2023-02-04T01:22:05.700Z,26.45
2023-02-04T01:23:05.753Z,26.46
2023-02-04T01:24:05.756Z,26.48
2023-02-04T01:25:05.792Z,26.46
2023-02-04T01:26:05.841Z,26.43
2023-02-04T01:27:05.849Z,26.43
2023-02-04T01:28:05.938Z,26.45
2023-02-04T01:29:05.925Z,26.45
2023-02-04T01:30:05.972Z,26.45
2023-02-04T01:31:06.059Z,26.43
2023-02-04T01:32:06.089Z,26.46
2023-02-04T01:33:06.043Z,26.43
2023-02-04T01:34:06.064Z,26.43
2023-02-04T01:35:06.108Z,26.43
2023-02-04T01:36:06.109Z,26.42
2023-02-04T01:37:06.159Z,26.43
2023-02-04T01:38:06.169Z,26.45
2023-02-04T01:39:06.205Z,26.45
2023-02-04T01:40:06.226Z,26.45
2023-02-04T01:41:06.250Z,26.42
2023-02-04T01:42:06.293Z,26.43
2023-02-04T01:43:06.324Z,26.42
2023-02-04T01:44:06.334Z,26.40
2023-02-04T01:45:06.389Z,26.42
2023-02-04T01:46:06.458Z,26.43
2023-02-04T01:47:06.425Z,26.43
2023-02-04T01:48:06.458Z,26.42
2023-02-04T01:49:06.462Z,26.42
2023-02-04T01:50:06.513Z,26.42
2023-02-04T01:51:06.536Z,26.42
2023-02-04T01:52:06.537Z,26.40
2023-02-04T01:53:06.545Z,26.40
2023-02-04T01:54:06.569Z,26.43
2023-02-04T01:55:06.610Z,26.40
2023-02-04T01:56:06.626Z,26.43
2023-02-04T01:57:06.671Z,26.42
2023-02-04T01:58:06.656Z,26.45
2023-02-04T01:59:06.716Z,26.43
2023-02-04T02:00:06.728Z,26.43
2023-02-04T02:01:06.752Z,26.43
2023-02-04T02:02:06.802Z,26.43
2023-02-04T02:03:06.806Z,26.42
2023-02-04T02:04:06.801Z,26.43
2023-02-04T02:05:06.843Z,26.43
2023-02-04T02:06:06.863Z,26.42
2023-02-04T02:08:06.907Z,26.43
2023-02-04T02:09:06.957Z,26.42
2023-02-04T02:10:06.971Z,26.43
2023-02-04T02:11:07.001Z,26.42
2023-02-04T02:12:07.019Z,26.42
2023-02-04T02:13:07.064Z,26.43
2023-02-04T02:14:07.019Z,26.40
2023-02-04T02:15:07.092Z,26.42
2023-02-04T02:16:07.113Z,26.42
2023-02-04T02:17:07.153Z,26.42
2023-02-04T02:18:07.189Z,26.42
2023-02-04T02:19:07.210Z,26.39
2023-02-04T02:20:07.216Z,26.40
2023-02-04T02:21:07.275Z,26.39
2023-02-04T02:22:07.266Z,26.39
2023-02-04T02:23:07.345Z,26.40
2023-02-04T02:24:07.344Z,26.40
2023-02-04T02:25:07.365Z,26.40
2023-02-04T02:26:07.370Z,26.42
2023-02-04T02:27:07.393Z,26.42
2023-02-04T02:28:07.566Z,26.40
2023-02-04T02:37:07.694Z,26.40
2023-02-04T02:38:07.749Z,26.42
2023-02-04T02:39:07.743Z,26.40
2023-02-04T02:40:07.768Z,26.40
2023-02-04T02:41:07.821Z,26.40
2023-02-04T02:42:07.796Z,26.42
2023-02-04T02:43:07.888Z,26.39
2023-02-04T02:44:07.889Z,26.39
2023-02-04T02:45:07.892Z,26.38
2023-02-04T02:46:07.996Z,26.40
2023-02-04T02:47:07.984Z,26.40
2023-02-04T02:48:08.010Z,26.40
2023-02-04T02:49:08.037Z,26.40
2023-02-04T02:50:08.050Z,26.38
2023-02-04T02:51:08.113Z,26.39
2023-02-04T02:52:08.104Z,26.40
2023-02-04T02:53:08.118Z,26.40
2023-02-04T02:54:08.159Z,26.39
2023-02-04T02:55:08.180Z,26.39
2023-02-04T02:56:08.218Z,26.39
2023-02-04T02:57:08.238Z,26.40
2023-02-04T02:58:08.299Z,26.39
2023-02-04T02:59:08.312Z,26.40
2023-02-04T03:00:08.352Z,26.39
2023-02-04T03:01:08.428Z,26.39
2023-02-04T03:02:08.475Z,26.40
2023-02-04T03:03:08.502Z,26.39
2023-02-04T03:04:08.442Z,26.39
2023-02-04T03:05:08.478Z,26.40
2023-02-04T03:06:08.483Z,26.39
2023-02-04T03:07:08.520Z,26.39
2023-02-04T03:08:08.565Z,26.38
2023-02-04T03:09:08.562Z,26.39
2023-02-04T03:10:08.616Z,26.39
2023-02-04T03:11:08.622Z,26.38
2023-02-04T03:12:08.695Z,26.39
2023-02-04T03:13:08.702Z,26.39
2023-02-04T03:14:08.711Z,26.38
2023-02-04T03:15:08.748Z,26.38
2023-02-04T03:16:08.837Z,26.38
2023-02-04T03:17:08.829Z,26.38
2023-02-04T03:18:08.836Z,26.38
2023-02-04T03:19:08.863Z,26.36
2023-02-04T03:20:08.892Z,26.38
2023-02-04T03:21:08.957Z,26.38
2023-02-04T03:22:09.638Z,26.38
2023-02-04T03:23:08.971Z,26.38
2023-02-04T03:24:09.018Z,26.39
2023-02-04T03:25:09.078Z,26.40
2023-02-04T03:26:09.096Z,26.39
2023-02-04T03:27:09.105Z,26.39
2023-02-04T03:28:09.200Z,26.39
2023-02-04T03:29:09.158Z,26.38
2023-02-04T03:30:09.192Z,26.39
2023-02-04T03:31:09.325Z,26.39
2023-02-04T03:32:09.258Z,26.39
2023-02-04T03:33:09.252Z,26.40
2023-02-04T03:34:09.310Z,26.39
2023-02-04T03:35:09.303Z,26.40
2023-02-04T03:36:09.363Z,26.39
2023-02-04T03:37:09.371Z,26.39
2023-02-04T03:38:09.449Z,26.39
2023-02-04T03:39:09.467Z,26.40
2023-02-04T03:40:09.468Z,26.39
2023-02-04T03:41:09.507Z,26.39
2023-02-04T03:42:09.526Z,26.40
2023-02-04T03:43:09.581Z,26.39
2023-02-04T03:44:09.570Z,26.39
2023-02-04T03:45:09.613Z,26.39
2023-02-04T03:46:09.662Z,26.39
2023-02-04T03:47:09.637Z,26.39
2023-02-04T03:48:09.674Z,26.39
2023-02-04T03:49:09.700Z,26.39
2023-02-04T03:50:09.711Z,26.40
2023-02-04T03:51:09.782Z,26.40
2023-02-04T03:52:09.781Z,26.39
2023-02-04T03:53:09.830Z,26.36
2023-02-04T03:54:09.846Z,26.38
2023-02-04T05:19:12.395Z,26.35
2023-02-04T05:20:12.442Z,26.35
2023-02-04T05:21:12.485Z,26.35
2023-02-04T05:22:12.474Z,26.36
2023-02-04T05:23:12.515Z,26.35
2023-02-04T05:24:12.549Z,26.35
2023-02-04T05:25:12.594Z,26.36
2023-02-04T05:26:19.542Z,26.36
2023-02-04T05:27:13.594Z,26.35
2023-02-04T05:28:12.643Z,26.34
2023-02-04T05:29:12.612Z,26.35
2023-02-04T05:30:12.579Z,26.36
2023-02-04T05:31:12.645Z,26.35
2023-02-04T05:32:12.634Z,26.35
2023-02-04T05:33:12.591Z,26.35
2023-02-04T05:34:12.581Z,26.36
2023-02-04T05:35:12.526Z,26.36
2023-02-04T05:36:12.537Z,26.36
2023-02-04T05:37:12.537Z,26.35
2023-02-04T05:38:12.552Z,26.36
2023-02-04T05:39:12.529Z,26.35
2023-02-04T05:40:12.537Z,26.35
2023-02-04T05:41:12.500Z,26.36
2023-02-04T05:42:12.509Z,26.35
2023-02-04T05:43:12.513Z,26.35
2023-02-04T05:44:12.486Z,26.36
2023-02-04T05:45:12.523Z,26.34
2023-02-04T05:46:12.634Z,26.35
2023-02-04T05:47:12.615Z,26.34
2023-02-04T05:48:12.659Z,26.34
2023-02-04T05:49:12.650Z,26.35
2023-02-04T05:50:12.732Z,26.34
2023-02-04T05:51:12.713Z,26.32
2023-02-04T05:52:12.740Z,26.32
2023-02-04T05:53:12.798Z,26.35
2023-02-04T05:54:12.841Z,26.34
2023-02-04T05:55:12.882Z,26.34
2023-02-04T05:56:12.917Z,26.31
2023-02-04T05:57:12.979Z,26.32
2023-02-04T05:58:12.978Z,26.34
2023-02-04T05:59:13.025Z,26.34
2023-02-04T06:00:13.083Z,26.34
2023-02-04T06:01:13.097Z,26.31
2023-02-04T06:02:13.145Z,26.32
2023-02-04T06:03:13.232Z,26.32
2023-02-04T06:04:13.279Z,26.29
2023-02-04T06:05:13.278Z,26.29
2023-02-04T06:28:14.140Z,26.28
2023-02-04T06:29:14.155Z,26.26
2023-02-04T06:30:14.157Z,26.26
2023-02-04T06:31:14.300Z,26.28
2023-02-04T06:32:14.290Z,26.26
2023-02-04T06:33:14.314Z,26.26
2023-02-04T06:34:14.351Z,26.28
2023-02-04T06:35:14.378Z,26.29
2023-02-04T06:36:14.405Z,26.24
2023-02-04T06:37:14.373Z,26.28
2023-02-04T06:38:14.443Z,26.26
2023-02-04T06:39:14.421Z,26.26
2023-02-04T06:40:14.422Z,26.26
2023-02-04T06:41:14.446Z,26.26
2023-02-04T06:42:14.514Z,26.28
2023-02-04T06:43:14.530Z,26.28
2023-02-04T06:44:14.578Z,26.28
2023-02-04T06:45:14.594Z,26.28
2023-02-04T06:46:14.682Z,26.29
2023-02-04T06:47:14.696Z,26.26
2023-02-04T06:48:14.725Z,26.28
2023-02-04T06:49:14.761Z,26.28
2023-02-04T06:50:14.809Z,26.31
2023-02-04T06:51:14.843Z,26.29
2023-02-04T06:52:14.894Z,26.28
2023-02-04T06:53:14.951Z,26.26
2023-02-04T06:54:14.929Z,26.29
2023-02-04T06:55:15.007Z,26.31
2023-02-04T06:56:15.070Z,26.29
2023-02-04T06:57:15.079Z,26.28
2023-02-04T06:58:15.142Z,26.29
2023-02-04T06:59:15.186Z,26.28
2023-02-04T07:00:15.190Z,26.28
2023-02-04T07:01:15.295Z,26.28
2023-02-04T07:02:15.280Z,26.25
2023-02-04T07:03:15.299Z,26.26
2023-02-04T07:04:15.357Z,26.29
2023-02-04T07:05:15.414Z,26.25
2023-02-04T07:06:15.435Z,26.26
2023-02-04T07:07:15.470Z,26.26
2023-02-04T07:08:15.516Z,26.28
2023-02-04T07:09:15.552Z,26.29
2023-02-04T07:10:15.593Z,26.28
2023-02-04T07:11:15.678Z,26.28
2023-02-04T07:12:16.410Z,26.26
2023-02-04T07:13:15.738Z,26.28
2023-02-04T07:14:15.780Z,26.31
2023-02-04T07:15:15.841Z,26.26
2023-02-04T07:16:15.915Z,26.28
2023-02-04T07:17:15.902Z,26.29
2023-02-04T07:18:15.985Z,26.25
2023-02-04T07:19:15.996Z,26.26
2023-02-04T07:20:16.054Z,26.28
2023-02-04T07:21:16.113Z,26.26
2023-02-04T07:22:16.136Z,26.28
2023-02-04T07:23:16.160Z,26.28
2023-02-04T07:24:16.204Z,26.26
2023-02-04T07:25:16.238Z,26.28
2023-02-04T07:26:16.271Z,26.29
2023-02-04T07:27:16.351Z,26.26
2023-02-04T07:28:16.440Z,26.26
2023-02-04T07:29:24.148Z,26.25
2023-02-04T07:30:17.404Z,26.28
2023-02-04T07:31:16.443Z,26.28
2023-02-04T07:32:16.393Z,26.29
2023-02-04T07:33:16.400Z,26.28
2023-02-04T07:34:16.366Z,26.28
2023-02-04T07:35:16.350Z,26.25
2023-02-04T07:36:16.344Z,26.28
2023-02-04T07:37:16.323Z,26.25
2023-02-04T07:38:16.350Z,26.29
2023-02-04T07:39:16.338Z,26.29
2023-02-04T07:40:16.350Z,26.28
2023-02-04T07:41:16.323Z,26.29
2023-02-04T07:42:16.304Z,26.31
2023-02-04T07:43:16.337Z,26.28
2023-02-04T07:44:16.369Z,26.28
2023-02-04T07:45:16.406Z,26.29
2023-02-04T07:46:16.465Z,26.29
2023-02-04T07:47:16.475Z,26.28
2023-02-04T07:48:16.513Z,26.29
2023-02-04T07:49:16.564Z,26.29
2023-02-04T07:50:16.576Z,26.29
2023-02-04T07:51:16.583Z,26.28
2023-02-04T07:52:16.580Z,26.28
2023-02-04T07:53:16.629Z,26.29
2023-02-04T07:54:16.604Z,26.29
2023-02-04T07:55:16.589Z,26.28
2023-02-04T07:56:16.613Z,26.28
2023-02-04T07:57:16.647Z,26.28
2023-02-04T07:58:16.634Z,26.29
2023-02-04T07:59:16.658Z,26.28
2023-02-04T08:00:16.699Z,26.29
2023-02-04T11:00:22.409Z,26.73
2023-02-04T11:01:22.467Z,26.76
2023-02-04T11:02:22.437Z,26.76
2023-02-04T11:03:22.465Z,26.78
2023-02-04T11:04:22.453Z,26.78
2023-02-04T11:05:22.481Z,26.78
2023-02-04T11:06:22.456Z,26.78
2023-02-04T11:07:22.474Z,26.76
2023-02-04T11:08:22.470Z,26.75
2023-02-04T11:09:22.530Z,26.76
2023-02-04T11:10:22.529Z,26.76
2023-02-04T11:11:22.493Z,26.75
2023-02-04T11:12:22.494Z,26.75
2023-02-04T11:13:22.543Z,26.72
2023-02-04T11:14:22.542Z,26.70
2023-02-04T11:15:22.550Z,26.70
2023-02-04T11:16:22.608Z,26.72
2023-02-04T11:17:22.578Z,26.72
2023-02-04T11:18:22.560Z,26.69
2023-02-04T11:19:22.566Z,26.70
2023-02-04T11:20:22.606Z,26.69
2023-02-04T11:21:22.630Z,26.68
2023-02-04T11:22:22.620Z,26.68
2023-02-04T11:23:22.672Z,26.66
2023-02-04T11:24:22.685Z,26.66
2023-02-04T11:25:22.737Z,26.66
2023-02-04T11:26:22.789Z,26.63
2023-02-04T11:27:22.731Z,26.63
2023-02-04T11:28:22.781Z,26.63
2023-02-04T11:29:22.819Z,26.66
2023-02-04T11:30:22.826Z,26.63
2023-02-04T11:31:22.980Z,26.60
2023-02-04T11:32:22.884Z,26.62
2023-02-04T11:33:22.871Z,26.62
2023-02-04T11:34:22.907Z,26.60
2023-02-04T11:35:22.969Z,26.60
2023-02-04T11:36:22.998Z,26.58
2023-02-04T11:37:23.001Z,26.60
2023-02-04T11:38:23.049Z,26.60
2023-02-04T11:39:23.085Z,26.60
2023-02-04T11:40:23.054Z,26.58
2023-02-04T11:41:23.147Z,26.59
2023-02-04T11:42:23.147Z,26.58
2023-02-04T11:43:23.155Z,26.55
2023-02-04T11:44:23.232Z,26.58
2023-02-04T11:45:23.232Z,26.55
2023-02-04T11:46:23.406Z,26.58
2023-02-04T11:47:23.291Z,26.55
2023-02-04T11:48:23.307Z,26.55
2023-02-04T11:49:23.357Z,26.53
2023-02-04T11:50:23.380Z,26.52
2023-02-04T11:51:23.415Z,26.52
2023-02-04T11:52:23.443Z,26.50
2023-02-04T11:53:23.467Z,26.52
2023-02-04T11:54:23.502Z,26.49
2023-02-04T11:55:23.538Z,26.49
2023-02-04T11:56:23.577Z,26.50
2023-02-04T11:57:23.612Z,26.50
2023-02-04T11:58:23.653Z,26.48
2023-02-04T11:59:23.694Z,26.49
2023-02-04T12:00:23.756Z,26.49
2023-02-04T12:01:23.794Z,26.48
2023-02-04T12:02:23.829Z,26.48
2023-02-04T12:03:23.856Z,26.46
2023-02-04T12:04:23.890Z,26.46
2023-02-04T12:05:23.935Z,26.46
2023-02-04T12:06:23.960Z,26.40
2023-02-04T12:07:24.001Z,26.43
2023-02-04T12:08:24.017Z,26.42
2023-02-04T12:09:24.051Z,26.43
2023-02-04T12:10:24.128Z,26.40
2023-02-04T12:11:24.178Z,26.42
2023-02-04T12:12:24.195Z,26.42
2023-02-04T12:13:24.239Z,26.43
2023-02-04T12:14:24.275Z,26.38
2023-02-04T12:15:24.305Z,26.40
2023-02-04T12:16:24.390Z,26.39
2023-02-04T12:17:24.369Z,26.39
2023-02-04T12:18:24.429Z,26.39
2023-02-04T12:19:26.211Z,26.39
2023-02-04T12:20:24.441Z,26.40
2023-02-04T12:21:24.457Z,26.39
2023-02-04T12:22:24.454Z,26.39
2023-02-04T12:23:24.447Z,26.38
2023-02-04T12:24:24.406Z,26.38
2023-02-04T12:25:24.430Z,26.39
2023-02-04T12:26:24.391Z,26.36
2023-02-04T12:27:24.429Z,26.39
2023-02-04T12:28:24.410Z,26.38
2023-02-04T12:29:24.380Z,26.36
2023-02-04T12:30:24.400Z,26.36
2023-02-04T12:31:24.431Z,26.35
2023-02-04T12:32:24.380Z,26.36
2023-02-04T12:33:24.358Z,26.38
2023-02-04T12:34:24.348Z,26.35
2023-02-04T12:35:24.349Z,26.35
2023-02-04T12:36:24.318Z,26.35
2023-02-04T12:37:24.324Z,26.34
2023-02-04T12:38:24.312Z,26.34
2023-02-04T12:39:24.315Z,26.32
2023-02-04T12:40:24.335Z,26.34
2023-02-04T12:41:24.878Z,26.31
2023-02-04T12:42:24.345Z,26.29
2023-02-04T12:43:24.658Z,26.32
2023-02-04T12:44:24.256Z,26.29
2023-02-04T12:45:24.298Z,26.32
2023-02-04T12:46:24.296Z,26.28
2023-02-04T12:47:24.262Z,26.29
2023-02-04T12:48:24.283Z,26.28
2023-02-04T12:49:24.241Z,26.29
2023-02-04T12:50:24.271Z,26.25
2023-02-04T12:51:24.221Z,26.25
2023-02-04T12:52:24.225Z,26.25
2023-02-04T12:53:24.203Z,26.28
2023-02-04T12:54:24.203Z,26.26
2023-02-04T12:55:24.208Z,26.21
2023-02-04T12:56:24.206Z,26.24
2023-02-04T12:57:24.161Z,26.22
2023-02-04T12:58:24.170Z,26.22
2023-02-04T12:59:24.171Z,26.22
2023-02-04T13:00:24.191Z,26.21
2023-02-04T13:01:24.153Z,26.21
2023-02-04T13:02:24.115Z,26.22
2023-02-04T13:03:24.109Z,26.18
2023-02-04T13:04:24.139Z,26.19
2023-02-04T13:05:24.133Z,26.18
2023-02-04T13:06:24.107Z,26.18
2023-02-04T13:07:24.131Z,26.16
2023-02-04T13:08:24.080Z,26.16
2023-02-04T13:09:24.105Z,26.16
2023-02-04T13:10:24.103Z,26.15
2023-02-04T13:11:24.060Z,26.14
2023-02-04T13:12:24.059Z,26.14
2023-02-04T13:13:24.049Z,26.11
2023-02-04T13:14:24.091Z,26.14
2023-02-04T13:15:24.156Z,26.14
2023-02-04T13:16:24.234Z,26.15
2023-02-04T13:17:24.200Z,26.15
2023-02-04T13:18:24.239Z,26.14
2023-02-04T13:19:24.279Z,26.12
2023-02-04T13:20:24.350Z,26.15
2023-02-04T13:21:24.347Z,26.15
2023-02-04T13:22:24.442Z,26.14
2023-02-04T13:23:24.458Z,26.15
2023-02-04T13:24:24.512Z,26.19
2023-02-04T13:25:24.568Z,26.15
2023-02-04T13:26:24.594Z,26.15
2023-02-04T13:27:24.636Z,26.15
2023-02-04T13:28:24.646Z,26.18
2023-02-04T13:29:24.695Z,26.16
2023-02-04T13:30:24.810Z,26.15
2023-02-04T13:31:24.830Z,26.16
2023-02-04T13:32:24.815Z,26.15
2023-02-04T13:33:25.035Z,26.14
2023-02-04T13:34:24.872Z,26.15
2023-02-04T13:35:24.955Z,26.15
2023-02-04T13:36:24.959Z,26.15
2023-02-04T13:37:25.022Z,26.14
2023-02-04T13:38:25.082Z,26.16
2023-02-04T13:39:25.093Z,26.14
2023-02-04T13:40:25.158Z,26.15
2023-02-04T13:41:25.184Z,26.16
2023-02-04T13:42:25.880Z,26.15
2023-02-04T13:43:25.273Z,26.14
2023-02-04T13:44:25.298Z,26.14
2023-02-04T13:45:25.376Z,26.15
2023-02-04T13:46:25.427Z,26.14
2023-02-04T13:47:25.421Z,26.14
2023-02-04T13:48:25.459Z,26.15
2023-02-04T13:49:25.531Z,26.14
2023-02-04T13:50:25.566Z,26.12
2023-02-04T13:51:25.594Z,26.11
2023-02-04T13:52:25.647Z,26.11
2023-02-04T13:53:25.684Z,26.08
2023-02-04T13:54:25.736Z,26.12
2023-02-04T13:55:25.793Z,26.11
2023-02-04T13:56:25.859Z,26.14
2023-02-04T13:57:25.897Z,26.11
2023-02-04T13:58:25.893Z,26.11
2023-02-04T13:59:25.969Z,26.12
2023-02-04T14:00:25.985Z,26.11
2023-02-04T14:01:26.100Z,26.11
2023-02-04T14:02:26.179Z,26.12
2023-02-04T14:03:26.170Z,26.09
2023-02-04T14:04:26.227Z,26.09
2023-02-04T14:05:26.255Z,26.09
2023-02-04T14:06:26.293Z,26.09
2023-02-04T14:07:26.391Z,26.08
2023-02-04T14:08:26.429Z,26.09
2023-02-04T14:09:26.469Z,26.11
2023-02-04T14:10:26.505Z,26.08
2023-02-04T14:11:26.530Z,26.06
2023-02-04T14:12:26.619Z,26.08
2023-02-04T14:13:26.635Z,26.08
2023-02-04T14:14:26.708Z,26.06
2023-02-04T14:15:26.753Z,26.08
2023-02-04T14:16:26.835Z,26.06
2023-02-04T14:17:26.881Z,26.06
2023-02-04T14:18:26.894Z,26.05
2023-02-04T14:19:26.962Z,26.05
2023-02-04T14:20:27.007Z,26.05
2023-02-04T14:21:27.053Z,26.05
2023-02-04T14:22:27.085Z,26.08
2023-02-04T14:23:27.169Z,26.04
2023-02-04T14:24:27.197Z,26.04
2023-02-04T14:25:27.240Z,26.04
2023-02-04T14:26:27.328Z,26.04
2023-02-04T14:27:27.366Z,26.04
2023-02-04T14:28:27.394Z,26.02
2023-02-04T14:29:27.466Z,26.02
2023-02-04T14:30:27.561Z,26.04
2023-02-04T14:31:27.610Z,26.04
2023-02-04T14:32:27.630Z,25.99
2023-02-04T14:33:27.672Z,26.02
2023-02-04T14:34:27.721Z,26.01
2023-02-04T14:35:27.780Z,26.02
2023-02-04T14:36:27.789Z,26.02
2023-02-04T14:37:27.875Z,26.01
2023-02-04T14:38:27.916Z,26.01
2023-02-04T14:39:27.990Z,26.01
2023-02-04T14:40:27.993Z,26.01
2023-02-04T14:41:28.056Z,25.98
2023-02-04T14:42:28.109Z,25.99
2023-02-04T14:43:28.148Z,25.99
2023-02-04T14:44:28.234Z,25.98
2023-02-04T14:45:28.255Z,25.97
2023-02-04T14:46:28.390Z,25.98
2023-02-04T14:47:28.396Z,25.98
2023-02-04T14:48:28.430Z,25.95
2023-02-04T14:49:28.470Z,25.97
2023-02-04T14:50:28.529Z,25.97
2023-02-04T14:51:28.573Z,25.95
2023-02-04T14:52:28.633Z,25.97
2023-02-04T14:53:28.719Z,25.98
2023-02-04T14:54:28.760Z,25.95
2023-02-04T14:55:28.811Z,25.92
2023-02-04T14:56:28.873Z,25.95
2023-02-04T14:57:28.908Z,25.97
2023-02-04T15:05:29.311Z,25.94
2023-02-04T15:06:29.355Z,25.95
2023-02-04T15:41:31.088Z,25.99
2023-02-04T15:42:31.150Z,25.92
2023-02-04T15:43:31.202Z,25.95
2023-02-04T15:44:31.225Z,25.95
2023-02-04T15:45:31.289Z,25.95
2023-02-04T15:46:31.432Z,25.97
2023-02-04T15:47:31.414Z,25.92
2023-02-04T15:48:31.442Z,25.95
2023-02-04T15:50:31.921Z,25.95
2023-02-04T15:53:31.682Z,25.94
2023-02-04T15:54:31.753Z,25.92
2023-02-04T15:55:31.823Z,25.92
2023-02-04T15:56:31.832Z,25.92
2023-02-04T15:57:31.904Z,25.91
2023-02-04T15:58:31.964Z,25.92
2023-02-04T15:59:32.074Z,25.91
2023-02-04T16:00:32.456Z,25.94
2023-02-04T16:01:32.179Z,25.92
2023-02-04T16:02:32.265Z,25.91
2023-02-04T16:03:32.250Z,25.88
2023-02-04T16:04:32.352Z,25.92
2023-02-04T16:05:32.404Z,25.89
2023-02-04T16:06:32.466Z,25.91
2023-02-04T16:07:32.501Z,25.89
2023-02-04T16:08:32.561Z,25.89
2023-02-04T16:09:32.648Z,25.88
2023-02-04T16:10:33.017Z,25.89
2023-02-04T16:11:32.761Z,25.87
2023-02-04T16:12:32.823Z,25.88
2023-02-04T16:13:32.891Z,25.88
2023-02-04T16:14:32.968Z,25.88
2023-02-04T16:15:33.425Z,25.88
2023-02-04T16:16:33.081Z,25.91
2023-02-04T16:17:33.124Z,25.88
2023-02-04T16:18:33.208Z,25.89
2023-02-04T16:19:33.232Z,25.88
2023-02-04T16:20:33.324Z,25.89
2023-02-04T16:21:33.392Z,25.91
2023-02-04T16:22:33.447Z,25.88
2023-02-04T16:23:33.469Z,25.88
2023-02-04T16:24:33.551Z,25.89
2023-02-04T16:25:34.010Z,25.88
2023-02-04T16:26:33.663Z,25.89
2023-02-04T16:27:33.691Z,25.91
2023-02-04T16:28:33.749Z,25.88
2023-02-04T16:29:33.797Z,25.89
2023-02-04T16:30:33.835Z,25.88
2023-02-04T16:31:33.925Z,25.88
2023-02-04T16:32:33.931Z,25.88
2023-02-04T16:33:33.959Z,25.89
2023-02-04T16:34:34.007Z,25.89
2023-02-04T16:35:34.423Z,25.89
2023-02-04T16:36:34.151Z,25.89
2023-02-04T16:37:34.211Z,25.88
2023-02-04T16:38:34.262Z,25.88
2023-02-04T16:39:34.361Z,25.89
2023-02-04T16:40:34.680Z,25.88
2023-02-04T16:41:34.471Z,25.87
2023-02-04T16:42:34.558Z,25.88
2023-02-04T16:43:34.596Z,25.87
2023-02-04T16:44:34.667Z,25.89
2023-02-04T16:45:34.942Z,25.87
2023-02-04T16:46:34.853Z,25.87
2023-02-04T16:47:34.832Z,25.88
2023-02-04T16:48:34.899Z,25.88
2023-02-04T16:49:34.971Z,25.89
2023-02-04T16:50:35.280Z,25.88
2023-02-04T16:51:35.080Z,25.88
2023-02-04T16:52:35.118Z,25.87
2023-02-04T16:53:35.181Z,25.89
2023-02-04T16:54:35.215Z,25.89
2023-02-04T16:55:35.550Z,25.91
2023-02-04T16:56:35.419Z,25.88
2023-02-04T16:57:35.403Z,25.91
2023-02-04T16:58:35.452Z,25.88
2023-02-04T16:59:35.525Z,25.91
2023-02-04T17:00:35.541Z,25.91
2023-02-04T17:01:35.647Z,25.91
2023-02-04T17:02:35.690Z,25.91
2023-02-04T17:03:35.710Z,25.94
2023-02-04T17:04:35.750Z,25.92
2023-02-04T17:05:35.795Z,25.92
2023-02-04T17:06:35.939Z,25.92
2023-02-04T17:07:35.908Z,25.92
2023-02-04T17:08:35.953Z,25.95
2023-02-04T17:09:35.985Z,25.94
2023-02-04T17:10:36.039Z,25.94
2023-02-04T17:11:36.145Z,25.94
2023-02-04T17:12:36.192Z,25.94
2023-02-04T17:13:36.226Z,25.92
2023-02-04T17:14:36.262Z,25.94
2023-02-04T17:15:36.340Z,25.95
2023-02-04T17:16:36.387Z,25.92
2023-02-04T17:17:36.441Z,25.97
2023-02-04T17:18:36.540Z,25.94
2023-02-04T17:19:36.579Z,25.91
2023-02-04T17:20:36.603Z,25.95
2023-02-04T17:21:36.657Z,25.95
2023-02-04T17:22:36.703Z,25.95
2023-02-04T17:23:36.766Z,25.92
2023-02-04T17:24:36.806Z,25.92
2023-02-04T17:25:36.893Z,25.95
2023-02-04T17:26:36.934Z,25.94
2023-02-04T17:27:36.954Z,25.94
2023-02-04T17:28:37.068Z,25.94
2023-02-04T17:29:37.114Z,25.92
2023-02-04T17:30:37.146Z,25.94
2023-02-04T17:31:37.295Z,25.89
2023-02-04T17:32:37.868Z,25.94
2023-02-04T17:33:37.295Z,25.91
2023-02-04T17:34:37.383Z,25.92
2023-02-04T17:35:37.403Z,25.91
2023-02-04T17:36:37.479Z,25.92
2023-02-04T17:37:37.519Z,25.94
2023-02-04T17:38:37.592Z,25.91
2023-02-04T17:39:37.651Z,25.91
2023-02-04T17:40:37.851Z,25.91
2023-02-04T17:41:37.765Z,25.89
2023-02-04T17:42:37.834Z,25.91
2023-02-04T17:43:37.881Z,25.89
2023-02-04T17:44:37.980Z,25.89
2023-02-04T17:45:38.283Z,25.87
2023-02-04T17:46:38.084Z,25.88
2023-02-04T17:47:38.149Z,25.88
2023-02-04T17:48:38.190Z,25.88
2023-02-04T17:49:38.254Z,25.88
2023-02-04T17:50:38.913Z,25.89
2023-02-04T17:51:38.331Z,25.91
2023-02-04T17:52:38.434Z,25.87
2023-02-04T17:53:39.388Z,25.88
2023-02-04T17:54:38.531Z,25.88
2023-02-04T17:55:39.454Z,25.91
2023-02-04T17:56:38.638Z,25.89
2023-02-04T17:57:38.705Z,25.89
2023-02-04T17:58:38.744Z,25.89
2023-02-04T17:59:38.800Z,25.91
2023-02-04T18:00:39.067Z,25.88
2023-02-04T18:01:39.102Z,25.88
2023-02-04T18:02:38.976Z,25.87
2023-02-04T18:03:39.030Z,25.88
2023-02-04T18:04:39.095Z,25.89
2023-02-04T18:05:39.148Z,25.91
2023-02-04T18:06:39.192Z,25.88
2023-02-04T18:07:39.262Z,25.89
2023-02-04T18:08:39.319Z,25.88
2023-02-04T18:09:39.386Z,25.89
2023-02-04T18:10:39.411Z,25.92
2023-02-04T18:11:39.506Z,25.87
2023-02-04T18:12:39.537Z,25.92
2023-02-04T18:13:39.567Z,25.92
2023-02-04T18:14:39.677Z,25.91
2023-02-04T18:15:39.728Z,25.89
2023-02-04T18:16:39.819Z,25.89
2023-02-04T18:17:39.849Z,25.89
2023-02-04T18:18:39.903Z,25.91
2023-02-04T18:19:39.954Z,25.91
2023-02-04T18:20:40.004Z,25.89
2023-02-04T18:21:40.064Z,25.89
2023-02-04T18:22:40.066Z,25.91
2023-02-04T18:23:40.171Z,25.91
2023-02-04T18:24:40.206Z,25.92
2023-02-04T18:25:40.228Z,25.92
2023-02-04T18:26:40.324Z,25.94
2023-02-04T18:27:40.318Z,25.94
2023-02-04T18:28:40.339Z,25.95
2023-02-04T18:29:40.422Z,25.95
2023-02-04T18:30:40.498Z,25.94